createdAt,value
2023-04-30T00:00:29.696Z,7.60
2023-04-30T00:02:57.026Z,7.60
2023-04-30T00:05:24.078Z,7.50
2023-04-30T00:07:50.856Z,7.50
2023-04-30T00:10:18.032Z,7.50
2023-04-30T00:12:45.045Z,7.40
2023-04-30T00:15:13.341Z,7.40
2023-04-30T00:17:40.556Z,7.40
2023-04-30T00:20:08.306Z,7.40
2023-04-30T00:22:35.170Z,7.30
2023-04-30T00:25:02.491Z,7.40
2023-04-30T00:27:29.368Z,7.30
2023-04-30T00:29:56.692Z,7.30
2023-04-30T00:32:24.982Z,7.30
2023-04-30T00:34:52.032Z,7.20
2023-04-30T00:37:18.748Z,7.20
2023-04-30T00:39:45.722Z,7.10
2023-04-30T00:42:12.502Z,7.10
2023-04-30T00:44:39.726Z,7.10
2023-04-30T00:47:06.588Z,7.00
2023-04-30T00:49:35.300Z,7.00
2023-04-30T00:52:02.157Z,7.00
2023-04-30T00:54:29.360Z,6.90
2023-04-30T00:56:56.291Z,6.90
2023-04-30T00:59:23.529Z,6.90
2023-04-30T01:01:50.530Z,6.90
2023-04-30T01:04:18.590Z,6.90
2023-04-30T01:06:46.884Z,6.80
2023-04-30T01:09:13.911Z,6.80
2023-04-30T01:11:49.988Z,6.70
2023-04-30T01:14:25.396Z,6.70
2023-04-30T01:17:00.036Z,6.70
2023-04-30T01:19:37.037Z,6.70
2023-04-30T01:22:07.819Z,6.60
2023-04-30T01:25:02.328Z,6.60
2023-04-30T01:27:39.520Z,6.60
2023-04-30T01:30:09.784Z,6.60
2023-04-30T01:32:36.588Z,6.60
2023-04-30T01:35:03.948Z,6.50
2023-04-30T01:37:41.082Z,6.50
2023-04-30T01:40:23.713Z,6.40
2023-04-30T01:43:02.042Z,6.40
2023-04-30T01:45:44.998Z,6.50
2023-04-30T01:48:22.590Z,6.40
2023-04-30T01:50:53.481Z,6.40
2023-04-30T01:53:24.403Z,6.30
2023-04-30T01:55:55.774Z,6.30
2023-04-30T01:58:24.860Z,6.30
2023-04-30T02:00:53.778Z,6.30
2023-04-30T02:03:20.720Z,6.30
2023-04-30T02:05:48.758Z,6.30
2023-04-30T02:08:16.194Z,6.30
2023-04-30T02:10:43.008Z,6.20
2023-04-30T02:13:10.237Z,6.20
2023-04-30T02:15:37.036Z,6.20
2023-04-30T02:18:05.612Z,6.10
2023-04-30T02:20:32.446Z,6.10
2023-04-30T02:22:59.657Z,6.10
2023-04-30T02:25:26.647Z,6.00
2023-04-30T02:27:53.462Z,6.00
2023-04-30T02:30:20.935Z,6.00
2023-04-30T02:32:48.281Z,6.00
2023-04-30T02:35:16.946Z,6.00
2023-04-30T02:37:43.808Z,5.90
2023-04-30T02:40:12.023Z,6.00
2023-04-30T02:42:38.877Z,6.00
2023-04-30T02:45:06.998Z,5.90
2023-04-30T02:47:33.778Z,5.90
2023-04-30T02:50:00.847Z,5.90
2023-04-30T02:52:28.955Z,5.90
2023-04-30T02:54:56.061Z,5.90
2023-04-30T02:57:22.923Z,5.90
2023-04-30T02:59:50.302Z,5.90
2023-04-30T03:02:20.920Z,5.90
2023-04-30T03:04:48.282Z,5.90
2023-04-30T03:07:15.225Z,5.80
2023-04-30T03:09:44.037Z,5.90
2023-04-30T03:12:10.808Z,5.80
2023-04-30T03:14:37.960Z,5.80
2023-04-30T03:17:04.937Z,5.80
2023-04-30T03:19:31.985Z,5.70
2023-04-30T03:21:59.143Z,5.80
2023-04-30T03:24:25.948Z,5.60
2023-04-30T03:26:54.064Z,5.60
2023-04-30T03:29:21.202Z,5.60
2023-04-30T03:31:48.005Z,5.60
2023-04-30T03:34:14.904Z,5.60
2023-04-30T03:36:42.040Z,5.50
2023-04-30T03:39:09.806Z,5.50
2023-04-30T03:41:37.077Z,5.50
2023-04-30T03:44:05.548Z,5.50
2023-04-30T03:46:32.653Z,5.50
2023-04-30T03:48:59.424Z,5.50
2023-04-30T03:51:28.658Z,5.50
2023-04-30T03:53:55.816Z,5.50
2023-04-30T03:56:23.091Z,5.50
2023-04-30T03:58:50.043Z,5.40
2023-04-30T04:01:18.550Z,5.40
2023-04-30T04:03:45.569Z,5.50
2023-04-30T04:06:12.783Z,5.40
2023-04-30T04:08:43.052Z,5.40
2023-04-30T04:11:10.561Z,5.40
2023-04-30T04:13:37.399Z,5.50
2023-04-30T04:16:04.861Z,5.40
2023-04-30T04:18:33.026Z,5.50
2023-04-30T04:21:01.708Z,5.50
2023-04-30T04:23:28.607Z,5.60
2023-04-30T04:25:55.747Z,5.60
2023-04-30T04:28:22.580Z,5.60
2023-04-30T04:30:49.709Z,5.60
2023-04-30T04:33:17.176Z,5.60
2023-04-30T04:35:46.242Z,5.60
2023-04-30T04:38:13.070Z,5.60
2023-04-30T04:40:39.976Z,5.60
2023-04-30T04:43:07.402Z,5.60
2023-04-30T04:45:34.634Z,5.60
2023-04-30T04:48:01.469Z,5.60
2023-04-30T04:50:28.614Z,5.60
2023-04-30T04:52:56.786Z,5.70
2023-04-30T04:55:24.412Z,5.70
2023-04-30T04:57:51.272Z,5.80
2023-04-30T05:00:19.053Z,5.80
2023-04-30T05:02:46.296Z,5.80
2023-04-30T05:05:13.296Z,5.90
2023-04-30T05:07:41.288Z,6.00
2023-04-30T05:10:10.090Z,6.00
2023-04-30T05:12:37.247Z,6.00
2023-04-30T05:15:04.646Z,6.00
2023-04-30T05:17:31.512Z,6.00
2023-04-30T05:19:58.434Z,6.10
2023-04-30T05:22:25.924Z,6.10
2023-04-30T05:24:53.083Z,6.20
2023-04-30T05:27:22.051Z,6.20
2023-04-30T05:29:48.855Z,6.20
2023-04-30T05:32:16.377Z,6.20
2023-04-30T05:34:43.276Z,6.30
2023-04-30T05:37:10.386Z,6.40
2023-04-30T05:39:37.299Z,6.30
2023-04-30T05:42:04.507Z,6.30
2023-04-30T05:44:32.695Z,6.40
2023-04-30T05:46:59.815Z,6.40
2023-04-30T05:49:27.314Z,6.40
2023-04-30T05:51:54.468Z,6.50
2023-04-30T05:54:21.324Z,6.60
2023-04-30T05:56:48.857Z,6.70
2023-04-30T05:59:15.769Z,6.80
2023-04-30T06:01:44.538Z,6.90
2023-04-30T06:04:11.737Z,6.90
2023-04-30T06:06:38.715Z,7.10
2023-04-30T06:09:05.714Z,7.20
2023-04-30T06:11:33.193Z,7.30
2023-04-30T06:14:00.085Z,7.30
2023-04-30T06:16:27.371Z,7.40
2023-04-30T06:18:55.606Z,7.50
2023-04-30T06:21:26.178Z,7.60
2023-04-30T06:23:52.973Z,7.70
2023-04-30T06:26:22.756Z,7.80
2023-04-30T06:28:49.983Z,7.80
2023-04-30T06:31:16.911Z,7.80
2023-04-30T06:33:44.270Z,7.90
2023-04-30T06:36:12.415Z,8.00
2023-04-30T06:38:40.340Z,8.10
2023-04-30T06:41:07.154Z,8.20
2023-04-30T06:43:34.127Z,8.30
2023-04-30T06:46:03.990Z,8.40
2023-04-30T06:48:31.209Z,8.40
2023-04-30T06:50:58.395Z,8.40
2023-04-30T06:53:26.963Z,8.40
2023-04-30T06:55:53.851Z,8.40
2023-04-30T06:58:20.974Z,8.40
2023-04-30T07:00:47.765Z,8.50
2023-04-30T07:03:15.082Z,8.60
2023-04-30T07:05:42.126Z,8.70
2023-04-30T07:08:09.321Z,8.80
2023-04-30T07:10:37.531Z,8.80
2023-04-30T07:13:04.657Z,8.90
2023-04-30T07:15:31.428Z,8.90
2023-04-30T07:17:58.529Z,9.00
2023-04-30T07:20:25.635Z,9.00
2023-04-30T07:22:52.860Z,9.00
2023-04-30T07:25:19.901Z,9.10
2023-04-30T07:27:48.457Z,9.10
2023-04-30T07:30:15.256Z,9.20
2023-04-30T07:32:42.398Z,9.20
2023-04-30T07:35:09.725Z,9.20
2023-04-30T07:37:37.622Z,9.20
2023-04-30T07:40:09.199Z,9.30
2023-04-30T07:42:36.327Z,9.30
2023-04-30T07:45:05.372Z,9.40
2023-04-30T07:47:32.611Z,9.40
2023-04-30T07:49:59.618Z,9.50
2023-04-30T07:52:26.693Z,9.50
2023-04-30T07:54:53.530Z,9.60
2023-04-30T07:57:20.838Z,9.70
2023-04-30T07:59:50.391Z,9.90
2023-04-30T08:02:20.762Z,9.90
2023-04-30T08:04:47.646Z,9.80
2023-04-30T08:07:16.100Z,9.50
2023-04-30T08:09:42.920Z,9.40
2023-04-30T08:12:10.618Z,9.30
2023-04-30T08:14:37.621Z,9.30
2023-04-30T08:17:05.046Z,9.20
2023-04-30T08:19:33.339Z,9.20
2023-04-30T08:22:01.147Z,9.20
2023-04-30T08:24:28.008Z,9.30
2023-04-30T08:26:55.199Z,9.30
2023-04-30T08:29:22.024Z,9.50
2023-04-30T08:31:49.409Z,9.60
2023-04-30T08:34:16.581Z,9.70
2023-04-30T08:36:44.978Z,9.80
2023-04-30T08:39:12.992Z,9.80
2023-04-30T08:41:41.750Z,10.00
2023-04-30T08:44:10.877Z,10.00
2023-04-30T08:46:39.870Z,10.00
2023-04-30T08:49:07.279Z,10.00
2023-04-30T08:51:35.765Z,10.10
2023-04-30T08:54:03.989Z,10.10
2023-04-30T08:56:31.745Z,10.20
2023-04-30T08:58:58.583Z,10.30
2023-04-30T09:01:27.360Z,10.40
2023-04-30T09:03:54.462Z,10.30
2023-04-30T09:06:22.311Z,10.40
2023-04-30T09:08:50.244Z,10.30
2023-04-30T09:11:26.375Z,10.30
2023-04-30T09:13:54.728Z,10.10
2023-04-30T09:16:22.354Z,10.10
2023-04-30T09:18:49.601Z,10.20
2023-04-30T09:21:17.152Z,10.20
2023-04-30T09:23:55.874Z,10.30
2023-04-30T09:26:28.592Z,10.30
2023-04-30T09:28:57.425Z,10.40
2023-04-30T09:31:26.466Z,10.40
2023-04-30T09:33:54.275Z,10.40
2023-04-30T09:36:21.509Z,10.40
2023-04-30T09:38:48.396Z,10.50
2023-04-30T09:41:24.836Z,10.50
2023-04-30T09:43:51.861Z,10.60
2023-04-30T09:46:20.569Z,10.60
2023-04-30T09:48:49.268Z,10.50
2023-04-30T09:51:16.370Z,10.40
2023-04-30T09:53:44.328Z,10.40
2023-04-30T09:56:13.413Z,10.40
2023-04-30T09:58:48.351Z,10.50
2023-04-30T10:01:16.158Z,10.50
2023-04-30T10:03:44.071Z,10.60
2023-04-30T10:06:14.010Z,10.60
2023-04-30T10:08:43.021Z,10.70
2023-04-30T10:11:16.393Z,10.80
2023-04-30T10:13:47.765Z,10.80
2023-04-30T10:16:23.820Z,10.90
2023-04-30T10:18:52.770Z,10.90
2023-04-30T10:21:22.586Z,10.90
2023-04-30T10:23:50.526Z,10.90
2023-04-30T10:26:18.299Z,10.90
2023-04-30T10:28:50.375Z,11.00
2023-04-30T10:31:19.213Z,11.10
2023-04-30T10:33:54.790Z,11.10
2023-04-30T10:36:28.182Z,11.10
2023-04-30T10:38:55.623Z,11.10
2023-04-30T10:41:22.462Z,11.10
2023-04-30T10:43:51.022Z,11.10
2023-04-30T10:46:28.606Z,11.10
2023-04-30T10:48:56.095Z,11.10
2023-04-30T10:51:23.457Z,11.10
2023-04-30T10:53:52.019Z,11.10
2023-04-30T10:56:32.571Z,11.20
2023-04-30T10:59:02.678Z,11.50
2023-04-30T11:01:31.005Z,11.80
2023-04-30T11:04:06.810Z,12.00
2023-04-30T11:06:49.192Z,12.10
2023-04-30T11:09:17.031Z,12.10
2023-04-30T11:11:44.719Z,12.10
2023-04-30T11:14:13.713Z,12.20
2023-04-30T11:16:41.344Z,12.30
2023-04-30T11:19:11.739Z,12.50
2023-04-30T11:21:40.882Z,12.90
2023-04-30T11:24:07.812Z,13.20
2023-04-30T11:27:08.624Z,13.40
2023-04-30T11:29:37.628Z,13.80
2023-04-30T11:32:05.557Z,14.40
2023-04-30T11:34:35.226Z,14.80
2023-04-30T11:37:03.567Z,15.40
2023-04-30T11:39:33.577Z,16.00
2023-04-30T11:42:02.904Z,16.70
2023-04-30T11:44:30.113Z,17.30
2023-04-30T11:46:58.511Z,17.70
2023-04-30T11:49:26.961Z,18.20
2023-04-30T11:51:53.768Z,18.70
2023-04-30T11:54:20.975Z,19.20
2023-04-30T11:56:48.758Z,19.60
2023-04-30T11:59:16.530Z,19.90
2023-04-30T12:01:44.085Z,19.50
2023-04-30T12:04:13.700Z,19.50
2023-04-30T12:06:41.914Z,20.10
2023-04-30T12:09:09.733Z,20.40
2023-04-30T12:11:38.246Z,21.00
2023-04-30T12:14:07.669Z,21.00
2023-04-30T12:16:44.271Z,22.10
2023-04-30T12:19:13.476Z,22.60
2023-04-30T12:21:42.062Z,22.40
2023-04-30T12:24:11.123Z,23.50
2023-04-30T12:26:39.905Z,23.00
2023-04-30T12:29:09.537Z,22.30
2023-04-30T12:31:37.207Z,22.70
2023-04-30T12:34:05.808Z,23.20
2023-04-30T12:36:36.600Z,23.80
2023-04-30T12:39:07.978Z,25.00
2023-04-30T12:41:37.809Z,25.90
2023-04-30T12:44:18.011Z,26.00
2023-04-30T12:46:46.433Z,24.70
2023-04-30T12:49:23.144Z,25.60
2023-04-30T12:51:51.463Z,25.70
2023-04-30T12:54:26.309Z,25.50
2023-04-30T12:57:01.420Z,25.60
2023-04-30T12:59:29.185Z,26.10
2023-04-30T13:01:56.588Z,26.20
2023-04-30T13:04:23.836Z,26.50
2023-04-30T13:06:52.080Z,26.60
2023-04-30T13:09:19.226Z,26.70
2023-04-30T13:11:47.170Z,27.40
2023-04-30T13:14:14.299Z,27.80
2023-04-30T13:16:41.208Z,27.60
2023-04-30T13:19:08.428Z,27.40
2023-04-30T13:21:35.373Z,27.70
2023-04-30T13:24:04.016Z,28.10
2023-04-30T13:26:30.779Z,28.10
2023-04-30T13:28:57.940Z,27.80
2023-04-30T13:31:25.049Z,27.90
2023-04-30T13:33:52.353Z,27.20
2023-04-30T13:36:19.230Z,26.40
2023-04-30T13:38:46.384Z,26.70
2023-04-30T13:41:14.727Z,26.50
2023-04-30T13:43:43.061Z,26.00
2023-04-30T13:46:10.235Z,26.80
2023-04-30T13:48:37.899Z,27.50
2023-04-30T13:51:05.156Z,27.90
2023-04-30T13:53:32.527Z,28.20
2023-04-30T13:55:59.575Z,28.40
2023-04-30T13:58:28.151Z,28.20
2023-04-30T14:00:55.023Z,27.30
2023-04-30T14:03:22.420Z,26.40
2023-04-30T14:05:49.338Z,26.70
2023-04-30T14:08:16.794Z,26.50
2023-04-30T14:10:43.785Z,26.70
2023-04-30T14:13:11.340Z,27.70
2023-04-30T14:15:39.492Z,28.50
2023-04-30T14:18:06.717Z,28.50
2023-04-30T14:20:33.654Z,27.70
2023-04-30T14:23:02.719Z,27.30
2023-04-30T14:25:29.742Z,27.50
2023-04-30T14:27:56.868Z,27.90
2023-04-30T14:30:23.986Z,27.90
2023-04-30T14:32:52.569Z,28.10
2023-04-30T14:35:19.719Z,28.40
2023-04-30T14:37:47.050Z,27.90
2023-04-30T14:40:14.572Z,28.20
2023-04-30T14:42:41.730Z,28.00
2023-04-30T14:45:09.926Z,27.70
2023-04-30T14:47:37.177Z,27.40
2023-04-30T14:50:06.143Z,27.20
2023-04-30T14:52:33.214Z,27.30
2023-04-30T14:55:00.004Z,27.00
2023-04-30T14:57:28.446Z,26.90
2023-04-30T14:59:57.652Z,26.70
2023-04-30T15:02:25.398Z,26.40
2023-04-30T15:04:52.473Z,25.80
2023-04-30T15:07:21.227Z,25.30
2023-04-30T15:09:48.026Z,24.80
2023-04-30T15:12:15.220Z,25.20
2023-04-30T15:14:42.151Z,25.40
2023-04-30T15:17:09.333Z,25.80
2023-04-30T15:19:36.296Z,25.90
2023-04-30T15:22:06.550Z,26.20
2023-04-30T15:24:34.823Z,26.30
2023-04-30T15:27:02.260Z,26.20
2023-04-30T15:29:29.336Z,26.40
2023-04-30T15:31:56.770Z,26.40
2023-04-30T15:34:23.766Z,27.10
2023-04-30T15:36:51.216Z,27.40
2023-04-30T15:39:19.108Z,27.30
2023-04-30T15:41:47.638Z,27.50
2023-04-30T15:44:14.630Z,27.20
2023-04-30T15:46:42.222Z,26.90
2023-04-30T15:49:09.150Z,27.30
2023-04-30T15:51:36.888Z,27.30
2023-04-30T15:54:03.793Z,27.70
2023-04-30T15:56:32.063Z,27.90
2023-04-30T15:59:00.615Z,26.90
2023-04-30T16:01:28.036Z,27.60
2023-04-30T16:03:55.306Z,28.20
2023-04-30T16:06:22.606Z,28.40
2023-04-30T16:08:50.379Z,28.40
2023-04-30T16:11:17.142Z,28.00
2023-04-30T16:13:44.356Z,27.80
2023-04-30T16:16:13.628Z,28.10
2023-04-30T16:18:41.281Z,28.00
2023-04-30T16:21:10.043Z,28.00
2023-04-30T16:23:37.375Z,28.20
2023-04-30T16:26:04.274Z,27.80
2023-04-30T16:28:31.523Z,27.60
2023-04-30T16:30:58.381Z,27.30
2023-04-30T16:33:27.087Z,27.20
2023-04-30T16:35:54.461Z,26.80
2023-04-30T16:38:22.572Z,26.20
2023-04-30T16:40:50.202Z,24.70
2023-04-30T16:43:17.286Z,23.70
2023-04-30T16:45:44.218Z,22.40
2023-04-30T16:48:11.289Z,21.50
2023-04-30T16:50:39.637Z,21.20
2023-04-30T16:53:06.494Z,21.00
2023-04-30T16:55:33.574Z,20.60
2023-04-30T16:58:01.037Z,20.30
2023-04-30T17:00:27.940Z,19.60
2023-04-30T17:02:55.230Z,19.10
2023-04-30T17:05:22.670Z,18.70
2023-04-30T17:07:51.765Z,18.40
2023-04-30T17:10:19.684Z,18.00
2023-04-30T17:12:47.608Z,17.70
2023-04-30T17:15:14.958Z,17.50
2023-04-30T17:17:42.106Z,17.20
2023-04-30T17:20:09.812Z,17.00
2023-04-30T17:22:38.575Z,16.80
2023-04-30T17:25:08.145Z,16.70
2023-04-30T17:27:35.309Z,16.50
2023-04-30T17:30:04.271Z,16.40
2023-04-30T17:32:31.489Z,16.30
2023-04-30T17:34:58.912Z,16.10
2023-04-30T17:37:26.726Z,16.00
2023-04-30T17:39:54.016Z,15.90
2023-04-30T17:42:22.830Z,15.80
2023-04-30T17:44:50.065Z,15.80
2023-04-30T17:47:17.303Z,15.60
2023-04-30T17:49:44.119Z,15.60
2023-04-30T17:52:11.628Z,15.50
2023-04-30T17:54:38.510Z,15.30
2023-04-30T17:57:05.468Z,15.30
2023-04-30T17:59:33.982Z,15.20
2023-04-30T18:02:01.290Z,15.10
2023-04-30T18:04:28.299Z,15.20
2023-04-30T18:06:55.359Z,15.00
2023-04-30T18:09:22.476Z,14.90
2023-04-30T18:11:50.140Z,14.90
2023-04-30T18:14:18.414Z,14.80
2023-04-30T18:16:47.336Z,14.70
2023-04-30T18:19:14.578Z,14.60
2023-04-30T18:21:41.487Z,14.50
2023-04-30T18:24:08.752Z,14.50
2023-04-30T18:26:35.641Z,14.40
2023-04-30T18:29:02.546Z,14.30
2023-04-30T18:31:29.402Z,14.30
2023-04-30T18:33:57.999Z,14.20
2023-04-30T18:36:25.028Z,14.10
2023-04-30T18:38:51.982Z,14.10
2023-04-30T18:41:21.393Z,14.00
2023-04-30T18:43:48.707Z,13.90
2023-04-30T18:46:15.935Z,13.90
2023-04-30T18:48:42.924Z,13.90
2023-04-30T18:51:11.451Z,13.80
2023-04-30T18:53:38.314Z,13.60
2023-04-30T18:56:06.203Z,13.60
2023-04-30T18:58:33.294Z,13.50
2023-04-30T19:01:00.427Z,13.40
2023-04-30T19:03:28.795Z,13.30
2023-04-30T19:05:58.933Z,13.30
2023-04-30T19:08:27.319Z,13.20
2023-04-30T19:10:55.902Z,13.20
2023-04-30T19:13:23.190Z,13.10
2023-04-30T19:15:50.185Z,13.10
2023-04-30T19:18:17.730Z,13.00
2023-04-30T19:20:57.124Z,13.00
2023-04-30T19:23:24.017Z,12.90
2023-04-30T19:25:52.630Z,12.90
2023-04-30T19:28:19.468Z,12.80
2023-04-30T19:30:46.622Z,12.80
2023-04-30T19:33:13.766Z,12.70
2023-04-30T19:35:41.025Z,12.60
2023-04-30T19:38:08.007Z,12.60
2023-04-30T19:40:35.983Z,12.60
2023-04-30T19:43:04.356Z,12.50
2023-04-30T19:45:31.930Z,12.50
2023-04-30T19:47:58.863Z,12.40
2023-04-30T19:50:26.496Z,12.30
2023-04-30T19:52:53.962Z,12.30
2023-04-30T19:55:21.687Z,12.30
2023-04-30T19:57:48.849Z,12.20
2023-04-30T20:00:17.227Z,12.10
2023-04-30T20:02:44.660Z,12.10
2023-04-30T20:05:11.898Z,12.00
2023-04-30T20:07:38.836Z,12.00
2023-04-30T20:10:09.294Z,11.90
2023-04-30T20:12:36.170Z,12.00
2023-04-30T20:15:03.527Z,11.90
2023-04-30T20:17:33.938Z,11.90
2023-04-30T20:20:01.202Z,11.90
2023-04-30T20:22:28.130Z,11.90
2023-04-30T20:24:55.527Z,11.90
2023-04-30T20:27:22.673Z,11.70
2023-04-30T20:29:49.956Z,11.70
2023-04-30T20:32:16.902Z,11.60
2023-04-30T20:34:45.450Z,11.50
2023-04-30T20:37:12.271Z,11.50
2023-04-30T20:39:39.493Z,11.40
2023-04-30T20:42:06.823Z,11.50
2023-04-30T20:44:34.321Z,11.40
2023-04-30T20:47:03.100Z,11.40
2023-04-30T20:49:30.374Z,11.40
2023-04-30T20:51:58.610Z,11.30
2023-04-30T20:54:26.172Z,11.30
2023-04-30T20:56:53.079Z,11.40
2023-04-30T20:59:20.266Z,11.30
2023-04-30T21:01:47.239Z,11.20
2023-04-30T21:04:14.570Z,11.10
2023-04-30T21:06:41.582Z,11.00
2023-04-30T21:09:10.918Z,11.00
2023-04-30T21:11:38.994Z,10.80
2023-04-30T21:14:05.989Z,10.80
2023-04-30T21:16:32.833Z,10.70
2023-04-30T21:19:00.188Z,10.70
2023-04-30T21:21:27.506Z,10.60
2023-04-30T21:28:02.969Z,10.50
2023-04-30T21:30:30.039Z,10.40
2023-04-30T21:32:58.877Z,10.40
2023-04-30T21:35:28.319Z,10.30
2023-04-30T21:37:55.658Z,10.30
2023-04-30T21:40:23.009Z,10.30
2023-04-30T21:42:50.418Z,10.20
2023-04-30T21:45:20.023Z,10.20
2023-04-30T21:47:47.363Z,10.20
2023-04-30T21:50:14.465Z,10.10
2023-04-30T21:52:41.299Z,10.10
2023-04-30T21:55:09.797Z,10.10
2023-04-30T21:57:36.655Z,10.10
2023-04-30T22:00:06.340Z,10.00
2023-04-30T22:02:34.841Z,10.00
2023-04-30T22:05:02.539Z,10.00
2023-04-30T22:07:29.531Z,10.00
2023-04-30T22:09:57.642Z,10.00
2023-04-30T22:12:27.400Z,9.90
2023-04-30T22:14:54.714Z,9.90
2023-04-30T22:17:22.016Z,9.90
2023-04-30T22:19:51.031Z,9.80
2023-04-30T22:22:18.176Z,9.80
2023-04-30T22:24:45.570Z,9.70
2023-04-30T22:27:12.528Z,9.70
2023-04-30T22:29:39.803Z,9.70
2023-04-30T22:32:07.216Z,9.60
2023-04-30T22:34:37.632Z,9.50
2023-04-30T22:37:05.863Z,9.50
2023-04-30T22:39:33.102Z,9.50
2023-04-30T22:42:00.174Z,9.50
2023-04-30T22:44:27.570Z,9.50
2023-04-30T22:46:57.787Z,9.50
2023-04-30T22:49:31.199Z,9.40
2023-04-30T22:51:58.997Z,9.40
2023-04-30T22:54:27.566Z,9.30
2023-04-30T22:56:54.495Z,9.30
2023-04-30T22:59:21.742Z,9.30
2023-04-30T23:01:48.988Z,9.30
2023-04-30T23:04:16.379Z,9.20
2023-04-30T23:06:43.424Z,9.20
2023-04-30T23:09:12.472Z,9.20
2023-04-30T23:11:40.850Z,9.20
2023-04-30T23:14:08.432Z,9.20
2023-04-30T23:16:35.711Z,9.10
2023-04-30T23:19:03.536Z,9.10
2023-04-30T23:21:31.348Z,9.00
2023-04-30T23:23:58.569Z,9.00
2023-04-30T23:26:25.572Z,9.00
2023-04-30T23:28:55.440Z,9.00
2023-04-30T23:31:22.335Z,9.00
2023-04-30T23:33:49.495Z,8.90
2023-04-30T23:36:16.415Z,8.80
2023-04-30T23:38:43.686Z,8.80
2023-04-30T23:41:10.701Z,8.80
2023-04-30T23:43:37.948Z,8.70
2023-04-30T23:46:06.218Z,8.70
2023-04-30T23:48:34.520Z,8.70
2023-04-30T23:51:02.283Z,8.60
2023-04-30T23:53:29.781Z,8.50
2023-04-30T23:55:57.814Z,8.50
2023-04-30T23:58:25.182Z,8.40
